Time;durP1;ratioP1;P1;durP2;ratioP2;P2;SDS_P1;SDS_P2;PMS_P1;PMS_P2;Temp;Humidity;BMP_temperature;BMP_pressure;BME280_temperature;BME280_humidity;BME280_pressure;Samples;Min_cycle;Max_cycle;Signal;HPM_P1;HPM_P2
2021/01/17 00:00:19;;;;;;;64.35;30.85;;;2.40;99.90;;;;;;5042753;28;20104;-73
2021/01/17 00:02:46;;;;;;;63.28;28.60;;;2.40;99.90;;;;;;5043818;28;20079;-72
2021/01/17 00:05:19;;;;;;;65.57;30.30;;;2.40;99.90;;;;;;5047497;28;20030;-72
2021/01/17 00:07:45;;;;;;;62.03;28.90;;;2.50;99.90;;;;;;5048801;28;20025;-73
2021/01/17 00:10:14;;;;;;;55.88;27.20;;;2.50;99.90;;;;;;5044187;28;20021;-72
2021/01/17 00:12:40;;;;;;;58.78;27.73;;;2.40;99.90;;;;;;5049633;28;20021;-73
2021/01/17 00:15:08;;;;;;;66.97;28.85;;;2.40;99.90;;;;;;5050432;28;20024;-73
2021/01/17 00:17:35;;;;;;;56.72;26.95;;;2.40;99.90;;;;;;5030298;28;20496;-73
2021/01/17 00:20:01;;;;;;;63.05;28.52;;;2.50;99.90;;;;;;5042135;28;20739;-73
2021/01/17 00:22:27;;;;;;;69.13;28.83;;;2.40;99.90;;;;;;5046904;28;20025;-72
2021/01/17 00:24:52;;;;;;;64.65;29.70;;;2.50;99.90;;;;;;5045094;28;20036;-73
2021/01/17 00:27:18;;;;;;;60.95;28.00;;;2.50;99.90;;;;;;5048204;28;20037;-73
2021/01/17 00:29:44;;;;;;;66.18;29.60;;;2.50;99.90;;;;;;5043662;28;20021;-72
2021/01/17 00:32:13;;;;;;;58.53;27.70;;;2.50;99.90;;;;;;5047551;28;20381;-72
2021/01/17 00:34:40;;;;;;;59.70;27.63;;;2.50;99.90;;;;;;5047542;28;20025;-72
2021/01/17 00:37:06;;;;;;;56.10;27.70;;;2.50;99.90;;;;;;5048803;28;20040;-72
2021/01/17 00:39:32;;;;;;;71.75;29.65;;;2.50;99.90;;;;;;5049978;28;20041;-73
2021/01/17 00:41:58;;;;;;;61.45;29.35;;;2.60;99.90;;;;;;5047796;28;20025;-73
2021/01/17 00:44:24;;;;;;;56.28;27.90;;;2.50;99.90;;;;;;5042622;28;20053;-73
2021/01/17 00:46:50;;;;;;;58.17;27.50;;;2.60;99.90;;;;;;5045491;28;20101;-73
2021/01/17 00:49:16;;;;;;;64.18;30.25;;;2.60;99.90;;;;;;5045914;28;20111;-73
2021/01/17 00:51:45;;;;;;;62.50;29.33;;;2.60;99.90;;;;;;5047441;28;20025;-72
2021/01/17 00:54:12;;;;;;;64.18;29.58;;;2.60;99.90;;;;;;5045515;28;20043;-73
2021/01/17 00:56:38;;;;;;;64.18;30.23;;;2.60;99.90;;;;;;5041961;28;20144;-72
2021/01/17 00:59:08;;;;;;;63.22;29.58;;;2.60;99.90;;;;;;5042185;28;20033;-73
2021/01/17 01:01:40;;;;;;;68.88;30.67;;;2.60;99.90;;;;;;5041146;28;20018;-73
2021/01/17 01:04:11;;;;;;;69.65;30.50;;;2.60;99.90;;;;;;5047925;28;20032;-73
2021/01/17 01:06:37;;;;;;;70.68;30.77;;;2.60;99.90;;;;;;5041936;28;20071;-72
2021/01/17 01:09:07;;;;;;;64.43;29.05;;;2.60;99.90;;;;;;5019001;28;20362;-73
2021/01/17 01:11:33;;;;;;;63.97;30.33;;;2.60;99.90;;;;;;5043101;28;20097;-73
2021/01/17 01:13:59;;;;;;;68.72;30.70;;;2.60;99.90;;;;;;5045882;28;20053;-72
2021/01/17 01:16:24;;;;;;;67.32;30.92;;;2.60;99.90;;;;;;5040207;28;20042;-73
2021/01/17 01:18:50;;;;;;;68.32;30.25;;;2.60;99.90;;;;;;5043636;28;20059;-72
2021/01/17 01:21:24;;;;;;;69.47;30.35;;;2.70;99.90;;;;;;5050288;28;20042;-73
2021/01/17 01:23:50;;;;;;;72.10;30.58;;;2.60;99.90;;;;;;5043718;28;20052;-73
2021/01/17 01:26:20;;;;;;;73.40;30.73;;;2.70;99.90;;;;;;5042964;28;20057;-72
2021/01/17 01:28:46;;;;;;;70.55;29.70;;;2.60;99.90;;;;;;5029190;28;20112;-72
2021/01/17 01:31:17;;;;;;;66.20;30.05;;;2.60;99.90;;;;;;5051440;28;20026;-72
2021/01/17 01:33:42;;;;;;;70.78;30.13;;;2.60;99.90;;;;;;5047795;28;20075;-72
2021/01/17 01:36:08;;;;;;;70.68;30.85;;;2.60;99.90;;;;;;5050875;28;20033;-72
2021/01/17 01:38:34;;;;;;;73.90;32.53;;;2.60;99.90;;;;;;5045217;28;20135;-72
2021/01/17 01:40:59;;;;;;;63.42;28.25;;;2.70;99.90;;;;;;5047844;28;20040;-72
2021/01/17 01:43:25;;;;;;;67.18;28.73;;;2.70;99.90;;;;;;5050846;28;20036;-72
2021/01/17 01:45:51;;;;;;;68.25;31.00;;;2.70;99.90;;;;;;5049378;28;20033;-72
2021/01/17 01:48:17;;;;;;;71.03;30.55;;;2.80;99.90;;;;;;5047908;28;20405;-72
2021/01/17 01:50:45;;;;;;;75.35;30.60;;;2.80;99.90;;;;;;5032755;28;20036;-72
2021/01/17 01:53:12;;;;;;;67.05;29.67;;;2.80;99.90;;;;;;5041858;28;20024;-73
2021/01/17 01:55:38;;;;;;;56.47;27.38;;;2.80;99.90;;;;;;5027015;28;20473;-73
2021/01/17 01:58:08;;;;;;;70.97;30.27;;;2.80;99.90;;;;;;5026463;28;20040;-72
2021/01/17 02:00:34;;;;;;;56.28;25.23;;;2.80;99.90;;;;;;5041309;28;20021;-72
2021/01/17 02:03:00;;;;;;;62.72;28.45;;;2.80;99.90;;;;;;5046713;28;20060;-72
2021/01/17 02:05:25;;;;;;;63.75;27.52;;;2.80;99.90;;;;;;5042680;28;20013;-73
2021/01/17 02:08:23;;;;;;;59.80;27.23;;;2.80;99.90;;;;;;5048228;28;20017;-72
2021/01/17 02:10:49;;;;;;;59.67;26.42;;;2.80;99.90;;;;;;5045832;28;20091;-72
2021/01/17 02:13:25;;;;;;;66.75;28.25;;;2.80;99.90;;;;;;5045483;28;20637;-72
2021/01/17 02:15:53;;;;;;;67.82;27.98;;;2.90;99.90;;;;;;5045493;28;20039;-72
2021/01/17 02:18:21;;;;;;;75.90;30.30;;;2.90;99.90;;;;;;5048711;28;20036;-72
2021/01/17 02:20:49;;;;;;;68.18;28.63;;;2.90;99.90;;;;;;5046935;28;20020;-72
2021/01/17 02:23:25;;;;;;;60.97;27.30;;;2.90;99.90;;;;;;5048100;28;20541;-73
2021/01/17 02:25:51;;;;;;;64.53;27.70;;;2.90;99.90;;;;;;5046909;28;20016;-73
2021/01/17 02:28:18;;;;;;;69.85;28.08;;;2.90;99.90;;;;;;5048054;28;20032;-73
2021/01/17 02:30:52;;;;;;;67.32;27.88;;;2.90;99.90;;;;;;5046510;28;20013;-73
2021/01/17 02:33:36;;;;;;;75.30;28.98;;;2.90;99.90;;;;;;5048302;28;20029;-73
2021/01/17 02:36:12;;;;;;;73.60;29.13;;;2.90;99.90;;;;;;5048593;28;20059;-73
2021/01/17 02:38:51;;;;;;;65.20;27.23;;;2.80;99.90;;;;;;5027207;28;21497;-72
2021/01/17 02:41:30;;;;;;;78.03;29.92;;;2.80;99.90;;;;;;5042261;28;20075;-72
2021/01/17 02:43:56;;;;;;;71.40;28.35;;;2.70;99.90;;;;;;5028728;28;20095;-72
2021/01/17 02:46:22;;;;;;;85.25;31.08;;;2.80;99.90;;;;;;5049846;28;20079;-73
2021/01/17 02:48:48;;;;;;;69.07;27.83;;;2.80;99.90;;;;;;5047631;28;20029;-73
2021/01/17 02:51:14;;;;;;;69.40;27.30;;;2.80;99.90;;;;;;5054472;28;20029;-72
2021/01/17 02:54:21;;;;;;;69.57;29.20;;;2.90;99.90;;;;;;5034363;28;20040;-73
2021/01/17 02:56:57;;;;;;;59.92;27.42;;;2.90;99.90;;;;;;5031342;28;20095;-73
2021/01/17 02:59:32;;;;;;;69.68;29.33;;;2.90;99.90;;;;;;5052708;28;20064;-72
2021/01/17 03:01:59;;;;;;;72.30;27.98;;;2.90;99.90;;;;;;5057292;28;20072;-73
2021/01/17 03:04:42;;;;;;;78.03;29.95;;;3.00;99.90;;;;;;5034982;28;20113;-72
2021/01/17 03:07:12;;;;;;;85.03;31.05;;;3.00;99.90;;;;;;5050543;28;20107;-73
2021/01/17 03:09:38;;;;;;;59.85;25.17;;;2.90;99.90;;;;;;5054214;28;20041;-72
2021/01/17 03:12:05;;;;;;;75.55;28.73;;;3.00;99.90;;;;;;5038960;28;20488;-73
2021/01/17 03:14:39;;;;;;;64.90;26.90;;;3.00;99.90;;;;;;5053480;28;20504;-73
2021/01/17 03:17:06;;;;;;;72.65;25.92;;;3.00;99.90;;;;;;5052850;28;20577;-73
2021/01/17 03:19:32;;;;;;;76.13;29.10;;;3.00;99.90;;;;;;5047888;28;20400;-73
2021/01/17 03:21:58;;;;;;;68.45;27.63;;;3.00;99.90;;;;;;5050670;28;20033;-73
2021/01/17 03:24:24;;;;;;;74.10;27.02;;;3.00;99.90;;;;;;5050640;28;20096;-73
2021/01/17 03:26:50;;;;;;;67.78;26.63;;;3.10;99.90;;;;;;5032724;28;20028;-73
2021/01/17 03:29:16;;;;;;;72.45;26.40;;;3.00;99.90;;;;;;5054550;28;20025;-73
2021/01/17 03:31:42;;;;;;;73.40;28.02;;;3.00;99.90;;;;;;5056008;28;20074;-73
2021/01/17 03:34:07;;;;;;;78.95;28.20;;;3.00;99.90;;;;;;5051830;28;20033;-73
2021/01/17 03:36:33;;;;;;;80.20;28.20;;;3.00;99.90;;;;;;5052117;28;20022;-73
2021/01/17 03:38:59;;;;;;;75.80;28.25;;;3.00;99.90;;;;;;5030430;28;20036;-73
2021/01/17 03:41:24;;;;;;;85.75;28.65;;;3.00;99.90;;;;;;5056723;28;20087;-73
2021/01/17 03:43:50;;;;;;;79.25;28.30;;;3.00;99.90;;;;;;5055255;28;20037;-73
2021/01/17 03:46:16;;;;;;;87.80;29.70;;;3.00;99.90;;;;;;5055757;28;20021;-73
2021/01/17 03:48:41;;;;;;;71.63;26.83;;;3.10;99.90;;;;;;5056156;28;20032;-73
2021/01/17 03:51:07;;;;;;;68.72;28.00;;;3.10;99.90;;;;;;5046903;28;20492;-73
2021/01/17 03:53:33;;;;;;;85.50;28.17;;;3.10;99.90;;;;;;5055050;28;20040;-73
2021/01/17 03:55:58;;;;;;;81.40;27.80;;;3.10;99.90;;;;;;5055141;28;20040;-72
2021/01/17 03:58:24;;;;;;;80.20;27.05;;;3.00;99.90;;;;;;5049855;28;20048;-73
2021/01/17 04:00:49;;;;;;;68.68;25.60;;;3.10;99.90;;;;;;5051984;28;20425;-73
2021/01/17 04:03:15;;;;;;;82.55;28.23;;;3.10;99.90;;;;;;5044489;28;20082;-73
2021/01/17 04:05:41;;;;;;;70.55;26.90;;;3.10;99.90;;;;;;5052508;28;20102;-73
2021/01/17 04:08:06;;;;;;;78.63;27.50;;;3.10;99.90;;;;;;5049909;28;20044;-73
2021/01/17 04:10:32;;;;;;;72.15;26.63;;;3.10;99.90;;;;;;5034736;28;20063;-73
2021/01/17 04:12:58;;;;;;;70.70;27.13;;;3.10;99.90;;;;;;5050314;28;20029;-73
2021/01/17 04:15:23;;;;;;;61.95;24.30;;;3.10;99.90;;;;;;5053211;28;20029;-73
2021/01/17 04:17:49;;;;;;;70.70;26.02;;;3.10;99.90;;;;;;5051376;28;20025;-74
2021/01/17 04:20:15;;;;;;;72.07;27.17;;;3.20;99.90;;;;;;5043115;28;20033;-73
2021/01/17 04:22:40;;;;;;;65.60;25.10;;;3.10;99.90;;;;;;5046688;28;20032;-73
2021/01/17 04:25:07;;;;;;;66.70;25.67;;;3.10;99.90;;;;;;5046034;28;20079;-73
2021/01/17 04:27:33;;;;;;;66.18;23.92;;;3.20;99.90;;;;;;5032740;28;20019;-73
2021/01/17 04:29:59;;;;;;;55.90;23.92;;;3.20;99.90;;;;;;5052114;28;20043;-73
2021/01/17 04:32:24;;;;;;;75.38;25.55;;;3.20;99.90;;;;;;5051991;28;20097;-73
2021/01/17 04:34:51;;;;;;;74.65;26.13;;;3.20;99.90;;;;;;5048010;28;20033;-73
2021/01/17 04:37:24;;;;;;;57.88;23.13;;;3.10;99.90;;;;;;5050429;28;20017;-73
2021/01/17 04:39:50;;;;;;;60.72;23.83;;;3.10;99.90;;;;;;5042579;28;20389;-73
2021/01/17 04:42:19;;;;;;;73.53;25.42;;;3.10;99.90;;;;;;5030787;28;20465;-73
2021/01/17 04:44:51;;;;;;;65.60;23.38;;;3.20;99.90;;;;;;5052404;28;20029;-72
2021/01/17 04:47:18;;;;;;;;;;;3.20;99.90;;;;;;5054310;28;20494;-73
2021/01/17 04:49:47;;;;;;;67.70;22.92;;;3.20;99.90;;;;;;5049616;28;20311;-73
2021/01/17 04:52:14;;;;;;;59.72;24.15;;;3.20;99.90;;;;;;5049285;28;20495;-73
2021/01/17 04:54:40;;;;;;;59.08;23.13;;;3.20;99.90;;;;;;5052351;28;20033;-73
2021/01/17 04:57:43;;;;;;;72.95;25.38;;;3.20;99.90;;;;;;5045671;28;20024;-72
2021/01/17 05:00:10;;;;;;;79.70;25.52;;;3.20;99.90;;;;;;5042378;28;20063;-73
2021/01/17 05:02:51;;;;;;;58.38;21.70;;;3.20;99.90;;;;;;5047434;28;20029;-73
2021/01/17 05:05:24;;;;;;;63.70;22.65;;;3.20;99.90;;;;;;5045176;28;20029;-73
2021/01/17 05:08:24;;;;;;;57.95;22.88;;;3.20;99.90;;;;;;5032091;28;20388;-73
2021/01/17 05:11:03;;;;;;;66.55;24.42;;;3.20;99.90;;;;;;5029500;28;20055;-73
2021/01/17 05:13:45;;;;;;;60.85;23.17;;;3.20;99.90;;;;;;5048507;28;20488;-73
2021/01/17 05:16:13;;;;;;;99.85;29.17;;;3.20;99.90;;;;;;5046754;28;20029;-73
2021/01/17 05:18:46;;;;;;;78.47;25.67;;;3.20;99.90;;;;;;5050036;28;20484;-73
2021/01/17 05:21:21;;;;;;;76.72;26.38;;;3.20;99.90;;;;;;5050834;28;20060;-73
2021/01/17 05:23:48;;;;;;;64.35;23.70;;;3.20;99.90;;;;;;5044246;28;20047;-73
2021/01/17 05:26:14;;;;;;;104.85;27.25;;;3.20;99.90;;;;;;5047014;28;20492;-73
2021/01/17 05:28:40;;;;;;;100.55;26.60;;;3.20;99.90;;;;;;5046395;28;20061;-73
2021/01/17 05:31:05;;;;;;;74.78;24.27;;;3.20;99.90;;;;;;5048813;28;20060;-72
2021/01/17 05:33:32;;;;;;;64.03;22.98;;;3.20;99.90;;;;;;5048699;28;20465;-73
2021/01/17 05:35:59;;;;;;;57.00;21.90;;;3.20;99.90;;;;;;5048112;28;20099;-73
2021/01/17 05:38:26;;;;;;;99.03;28.98;;;3.20;99.90;;;;;;5044427;28;20032;-73
2021/01/17 05:40:52;;;;;;;90.97;27.60;;;3.20;99.90;;;;;;5052528;28;20079;-73
2021/01/17 05:43:18;;;;;;;65.82;23.20;;;3.20;99.90;;;;;;5050844;28;20108;-73
2021/01/17 05:45:44;;;;;;;65.65;23.55;;;3.20;99.90;;;;;;5043388;28;20113;-73
2021/01/17 05:48:11;;;;;;;67.25;24.23;;;3.20;99.90;;;;;;5043652;28;20066;-72
2021/01/17 05:50:42;;;;;;;98.78;28.42;;;3.20;99.90;;;;;;5051401;28;20071;-73
2021/01/17 05:53:09;;;;;;;86.13;26.48;;;3.20;99.90;;;;;;5044829;28;20025;-73
2021/01/17 05:55:36;;;;;;;77.53;25.30;;;3.20;99.90;;;;;;5030505;28;20070;-73
2021/01/17 05:58:21;;;;;;;136.75;32.30;;;3.30;99.90;;;;;;5045434;28;20048;-73
2021/01/17 06:00:47;;;;;;;124.80;30.48;;;3.30;99.90;;;;;;5047763;28;20059;-73
2021/01/17 06:03:18;;;;;;;91.55;29.30;;;3.20;99.90;;;;;;5048018;28;20095;-73
2021/01/17 06:05:48;;;;;;;105.35;29.95;;;3.30;99.90;;;;;;5027664;28;20072;-73
2021/01/17 06:08:18;;;;;;;87.22;29.60;;;3.20;99.90;;;;;;5048945;28;20021;-73
2021/01/17 06:10:45;;;;;;;86.38;28.08;;;3.30;99.90;;;;;;5045008;28;20037;-73
2021/01/17 06:13:20;;;;;;;94.75;29.75;;;3.30;99.90;;;;;;5042546;28;20025;-73
2021/01/17 06:15:45;;;;;;;109.38;32.67;;;3.30;99.90;;;;;;5043457;28;20036;-73
2021/01/17 06:18:19;;;;;;;132.75;35.53;;;3.30;99.90;;;;;;5048495;28;20049;-73
2021/01/17 06:20:45;;;;;;;113.80;33.45;;;3.30;99.90;;;;;;5046881;28;20074;-73
2021/01/17 06:23:11;;;;;;;169.23;41.17;;;3.40;99.90;;;;;;5046242;28;20051;-73
2021/01/17 06:25:37;;;;;;;115.80;34.22;;;3.40;99.90;;;;;;5041683;28;20025;-73
2021/01/17 06:28:10;;;;;;;129.95;37.40;;;3.40;99.90;;;;;;5049811;28;20040;-73
2021/01/17 06:30:36;;;;;;;161.65;40.17;;;3.40;99.90;;;;;;5048716;28;20028;-73
2021/01/17 06:33:03;;;;;;;132.45;36.40;;;3.40;99.90;;;;;;5046773;28;20420;-73
2021/01/17 06:35:42;;;;;;;187.63;41.17;;;3.50;99.90;;;;;;5049579;28;20056;-73
2021/01/17 06:38:18;;;;;;;131.18;36.47;;;3.50;99.90;;;;;;5045543;28;20060;-73
2021/01/17 06:40:46;;;;;;;124.50;36.13;;;3.40;99.90;;;;;;5049000;28;20036;-72
2021/01/17 06:43:13;;;;;;;145.75;40.83;;;3.50;99.90;;;;;;5047595;28;20048;-72
2021/01/17 06:45:42;;;;;;;253.95;51.38;;;3.40;99.90;;;;;;5049790;28;20036;-72
2021/01/17 06:48:08;;;;;;;150.50;40.92;;;3.50;99.90;;;;;;5048441;28;20036;-72
2021/01/17 06:50:35;;;;;;;142.20;38.65;;;3.60;99.90;;;;;;5042504;28;20029;-72
2021/01/17 06:53:01;;;;;;;136.13;38.28;;;3.50;99.90;;;;;;5045899;28;20716;-72
2021/01/17 06:55:27;;;;;;;116.07;35.78;;;3.60;99.90;;;;;;5028526;28;20115;-72
2021/01/17 06:57:53;;;;;;;155.50;40.70;;;3.60;99.90;;;;;;5041042;28;20032;-72
2021/01/17 07:00:19;;;;;;;145.45;37.95;;;3.60;99.90;;;;;;5044818;28;20028;-72
2021/01/17 07:02:54;;;;;;;135.55;37.92;;;3.60;99.90;;;;;;5046114;28;20024;-72
2021/01/17 07:05:57;;;;;;;137.23;37.35;;;3.60;99.90;;;;;;5048972;28;20033;-73
2021/01/17 07:08:35;;;;;;;173.32;43.38;;;3.60;99.90;;;;;;5006537;28;20453;-72
2021/01/17 07:11:17;;;;;;;158.63;42.17;;;3.50;99.90;;;;;;5043792;28;20067;-72
2021/01/17 07:13:47;;;;;;;143.45;38.75;;;3.60;99.90;;;;;;5049722;28;20040;-72
2021/01/17 07:16:20;;;;;;;167.73;43.65;;;3.60;99.90;;;;;;5047436;28;20024;-72
2021/01/17 07:18:50;;;;;;;135.00;39.40;;;3.60;99.90;;;;;;5045564;28;20535;-72
2021/01/17 07:21:18;;;;;;;149.77;39.58;;;3.60;99.90;;;;;;5043341;28;20032;-72
2021/01/17 07:23:45;;;;;;;150.25;39.67;;;3.70;99.90;;;;;;5043729;28;20023;-72
2021/01/17 07:26:14;;;;;;;132.73;37.13;;;3.70;99.90;;;;;;5044084;28;20017;-73
2021/01/17 07:28:44;;;;;;;135.52;38.65;;;3.70;99.90;;;;;;5047214;28;20025;-72
2021/01/17 07:31:28;;;;;;;134.48;38.92;;;3.70;99.90;;;;;;5047016;28;20081;-72
2021/01/17 07:34:07;;;;;;;131.23;37.30;;;3.70;99.90;;;;;;5025317;28;20027;-72
2021/01/17 07:36:38;;;;;;;153.13;40.15;;;3.80;99.90;;;;;;5048352;28;20048;-72
2021/01/17 07:39:05;;;;;;;128.10;38.83;;;3.90;99.90;;;;;;5030972;28;20115;-72
2021/01/17 07:41:36;;;;;;;149.20;40.70;;;3.90;99.90;;;;;;5052518;28;20041;-72
2021/01/17 07:44:02;;;;;;;137.90;39.30;;;3.90;99.90;;;;;;5048186;28;20029;-72
2021/01/17 07:46:33;;;;;;;149.20;40.40;;;3.90;99.90;;;;;;5050467;28;20056;-72
2021/01/17 07:49:01;;;;;;;176.27;44.42;;;3.90;99.90;;;;;;5052586;28;20040;-73
2021/01/17 07:51:27;;;;;;;157.20;41.35;;;3.90;99.90;;;;;;5054582;28;20412;-73
2021/01/17 07:54:32;;;;;;;122.72;37.55;;;3.90;99.90;;;;;;5050237;28;20021;-72
2021/01/17 07:57:06;;;;;;;143.10;39.50;;;4.00;99.90;;;;;;5045179;28;20070;-72
2021/01/17 07:59:33;;;;;;;137.20;36.47;;;4.00;99.90;;;;;;5050022;28;20040;-73
2021/01/17 08:01:59;;;;;;;169.55;39.78;;;4.10;99.90;;;;;;5047451;28;20029;-73
2021/01/17 08:04:25;;;;;;;142.73;37.75;;;4.10;99.90;;;;;;5044183;28;20153;-73
2021/01/17 08:06:54;;;;;;;148.52;40.97;;;4.00;99.90;;;;;;5049036;28;20031;-73
2021/01/17 08:09:40;;;;;;;136.10;38.75;;;4.10;99.90;;;;;;5053392;28;20087;-72
2021/01/17 08:12:06;;;;;;;137.40;36.00;;;4.10;99.90;;;;;;5041812;28;20044;-73
2021/01/17 08:14:41;;;;;;;153.82;37.50;;;4.10;99.90;;;;;;5049968;28;20809;-74
2021/01/17 08:17:19;;;;;;;140.77;36.17;;;4.10;99.90;;;;;;5032837;28;20021;-73
2021/01/17 08:19:53;;;;;;;124.10;35.25;;;4.20;99.90;;;;;;5042434;28;20033;-72
2021/01/17 08:22:22;;;;;;;127.05;32.15;;;4.30;99.90;;;;;;5051240;28;20040;-72
2021/01/17 08:24:53;;;;;;;115.07;31.70;;;4.30;99.90;;;;;;5028933;28;20036;-72
2021/01/17 08:27:28;;;;;;;105.18;31.10;;;4.40;99.90;;;;;;5050366;28;20055;-72
2021/01/17 08:30:06;;;;;;;129.68;31.75;;;4.40;99.90;;;;;;5051333;28;20028;-71
2021/01/17 08:32:41;;;;;;;128.40;31.02;;;4.50;99.90;;;;;;5048047;28;20037;-72
2021/01/17 08:35:23;;;;;;;102.60;30.92;;;4.40;99.90;;;;;;5043138;28;20477;-73
2021/01/17 08:38:08;;;;;;;120.57;29.70;;;4.50;99.90;;;;;;5050839;28;20049;-73
2021/01/17 08:40:34;;;;;;;119.25;28.63;;;4.50;99.90;;;;;;5047063;28;20091;-73
2021/01/17 08:43:01;;;;;;;115.43;28.98;;;4.50;99.90;;;;;;5051155;28;20029;-73
2021/01/17 08:45:26;;;;;;;117.40;30.10;;;4.50;99.90;;;;;;5046136;28;20048;-72
2021/01/17 08:47:57;;;;;;;130.40;32.67;;;4.50;99.90;;;;;;5050697;28;20378;-73
2021/01/17 08:50:32;;;;;;;117.20;31.25;;;4.60;99.90;;;;;;5050469;28;20442;-72
2021/01/17 08:53:07;;;;;;;99.03;24.85;;;4.60;99.90;;;;;;5046361;28;20036;-73
2021/01/17 08:55:44;;;;;;;121.90;30.05;;;4.60;99.90;;;;;;5047060;28;20021;-73
2021/01/17 08:58:14;;;;;;;115.72;27.75;;;4.70;99.90;;;;;;5048487;28;20039;-73
2021/01/17 09:01:03;;;;;;;107.93;26.73;;;4.70;99.90;;;;;;5045683;28;20025;-73
2021/01/17 09:03:28;;;;;;;101.32;24.52;;;4.70;99.90;;;;;;5048543;28;20029;-73
2021/01/17 09:06:03;;;;;;;95.93;27.08;;;4.80;99.90;;;;;;5048751;28;20025;-73
2021/01/17 09:08:30;;;;;;;95.65;24.95;;;4.80;99.90;;;;;;5050215;28;20119;-72
2021/01/17 09:10:56;;;;;;;111.55;26.42;;;4.80;99.90;;;;;;5051024;28;20116;-72
2021/01/17 09:13:24;;;;;;;96.07;25.88;;;4.80;99.90;;;;;;5048819;28;20029;-72
2021/01/17 09:16:03;;;;;;;114.97;28.20;;;4.80;99.90;;;;;;5044226;28;20028;-73
2021/01/17 09:18:33;;;;;;;100.90;24.20;;;4.80;99.90;;;;;;5050046;28;20044;-72
2021/01/17 09:21:00;;;;;;;100.47;26.35;;;4.90;99.90;;;;;;5049941;28;20112;-72
2021/01/17 09:23:26;;;;;;;73.38;21.60;;;4.80;99.90;;;;;;5050205;28;20515;-73
2021/01/17 09:25:57;;;;;;;99.10;25.20;;;4.90;99.90;;;;;;5048582;28;20028;-72
2021/01/17 09:28:23;;;;;;;88.70;25.20;;;4.90;99.90;;;;;;5047960;28;20029;-72
2021/01/17 09:30:50;;;;;;;93.93;25.00;;;4.90;99.90;;;;;;5029474;28;20053;-72
2021/01/17 09:33:17;;;;;;;85.30;22.95;;;4.90;99.90;;;;;;5048462;28;20104;-72
2021/01/17 09:35:44;;;;;;;88.55;22.45;;;5.00;99.90;;;;;;5045216;28;20028;-72
2021/01/17 09:38:18;;;;;;;85.97;20.17;;;5.00;99.90;;;;;;5047002;28;20033;-73
2021/01/17 09:40:46;;;;;;;89.45;22.33;;;5.10;99.90;;;;;;5046828;28;20033;-72
2021/01/17 09:43:14;;;;;;;82.85;19.35;;;5.10;99.90;;;;;;5045963;28;20041;-72
2021/01/17 09:45:39;;;;;;;93.20;20.55;;;5.10;99.90;;;;;;5047060;28;20025;-73
2021/01/17 09:48:06;;;;;;;90.25;19.75;;;5.10;99.90;;;;;;5032908;28;20079;-73
2021/01/17 09:50:36;;;;;;;73.93;18.75;;;5.20;99.90;;;;;;5051330;28;20233;-72
2021/01/17 09:53:08;;;;;;;73.50;20.42;;;5.20;99.90;;;;;;5049849;28;20025;-72
2021/01/17 09:55:38;;;;;;;91.60;19.38;;;5.20;99.90;;;;;;5031705;28;20689;-72
2021/01/17 09:58:08;;;;;;;74.57;18.55;;;5.20;99.90;;;;;;5028741;28;20071;-72
2021/01/17 10:00:35;;;;;;;82.32;22.17;;;5.30;99.90;;;;;;5043375;28;20043;-72
2021/01/17 10:03:11;;;;;;;75.40;18.83;;;5.40;99.90;;;;;;5038667;28;20036;-73
2021/01/17 10:05:38;;;;;;;72.60;17.83;;;5.40;99.90;;;;;;5042179;28;20029;-73
2021/01/17 10:08:06;;;;;;;72.55;18.48;;;5.40;99.90;;;;;;5047103;28;20124;-72
2021/01/17 10:10:33;;;;;;;67.93;17.90;;;5.50;99.90;;;;;;5030482;28;20078;-72
2021/01/17 10:12:59;;;;;;;82.65;20.33;;;5.40;99.90;;;;;;5032591;28;20053;-72
2021/01/17 10:15:25;;;;;;;87.30;20.10;;;5.50;99.90;;;;;;5042940;28;20112;-72
2021/01/17 10:17:53;;;;;;;69.57;19.70;;;5.50;99.90;;;;;;5023517;28;20074;-72
2021/01/17 10:20:28;;;;;;;71.63;19.85;;;5.60;99.90;;;;;;5041374;28;20029;-72
2021/01/17 10:23:01;;;;;;;71.13;16.40;;;5.50;99.90;;;;;;5043268;28;20060;-73
2021/01/17 10:25:27;;;;;;;66.68;18.95;;;5.50;99.90;;;;;;5043626;28;20540;-73
2021/01/17 10:28:13;;;;;;;79.68;18.60;;;5.60;99.90;;;;;;5043930;28;20053;-72
2021/01/17 10:30:41;;;;;;;74.45;18.45;;;5.60;99.90;;;;;;5047804;28;20622;-73
2021/01/17 10:33:12;;;;;;;73.70;18.73;;;5.60;99.90;;;;;;5045657;28;20052;-72
2021/01/17 10:35:41;;;;;;;81.45;18.77;;;5.70;99.90;;;;;;5047215;28;20033;-72
2021/01/17 10:38:08;;;;;;;70.97;19.80;;;5.80;99.90;;;;;;5047363;28;20580;-73
2021/01/17 10:40:35;;;;;;;68.43;17.55;;;5.60;99.90;;;;;;5040431;28;20029;-72
2021/01/17 10:43:05;;;;;;;71.78;18.70;;;5.60;99.90;;;;;;5046258;28;20120;-72
2021/01/17 10:45:31;;;;;;;71.28;18.80;;;5.70;99.90;;;;;;5050539;28;20083;-72
2021/01/17 10:48:15;;;;;;;69.07;17.90;;;5.70;99.90;;;;;;5046878;28;20028;-73
2021/01/17 10:50:46;;;;;;;71.43;18.92;;;5.80;99.90;;;;;;5046718;28;20028;-73
2021/01/17 10:53:29;;;;;;;67.93;18.52;;;5.70;99.90;;;;;;5046921;28;20040;-72
2021/01/17 10:55:56;;;;;;;71.00;17.52;;;5.80;99.90;;;;;;5048375;28;20021;-73
2021/01/17 10:58:40;;;;;;;61.47;19.85;;;6.00;99.90;;;;;;5043776;28;20128;-72
2021/01/17 11:01:05;;;;;;;64.43;19.02;;;6.00;99.90;;;;;;5043301;28;20037;-73
2021/01/17 11:03:36;;;;;;;63.08;19.15;;;6.10;99.90;;;;;;5044611;28;20021;-73
2021/01/17 11:06:12;;;;;;;75.22;19.63;;;6.20;99.90;;;;;;5043328;28;20022;-72
2021/01/17 11:08:44;;;;;;;71.78;17.80;;;6.30;99.90;;;;;;5028776;28;20136;-73
2021/01/17 11:11:12;;;;;;;58.78;15.98;;;6.30;99.90;;;;;;5041702;28;20108;-73
2021/01/17 11:13:37;;;;;;;64.00;18.95;;;6.30;99.90;;;;;;5031842;28;20029;-72
2021/01/17 11:16:04;;;;;;;53.28;16.95;;;6.40;99.90;;;;;;5046664;28;20083;-73
2021/01/17 11:18:31;;;;;;;75.32;17.35;;;6.40;99.90;;;;;;5029366;28;20082;-73
2021/01/17 11:21:01;;;;;;;66.85;16.35;;;6.50;99.90;;;;;;5051902;28;20099;-72
2021/01/17 11:23:28;;;;;;;62.03;15.60;;;6.40;99.90;;;;;;5049192;28;20016;-73
2021/01/17 11:25:59;;;;;;;55.25;14.70;;;6.50;99.90;;;;;;5031657;28;20402;-74
2021/01/17 11:28:28;;;;;;;53.95;16.45;;;6.50;99.90;;;;;;5030658;28;20905;-73
2021/01/17 11:31:11;;;;;;;64.20;16.83;;;6.40;99.90;;;;;;5050637;28;20021;-72
2021/01/17 11:33:37;;;;;;;49.50;16.13;;;6.50;99.90;;;;;;5041222;28;20053;-72
2021/01/17 11:36:03;;;;;;;56.92;14.93;;;6.70;99.90;;;;;;5047305;28;20599;-71
2021/01/17 11:38:54;;;;;;;52.75;14.73;;;6.70;99.90;;;;;;5048185;28;20037;-72
2021/01/17 11:41:31;;;;;;;51.13;12.98;;;6.60;99.90;;;;;;5051612;28;20033;-72
2021/01/17 11:44:21;;;;;;;48.00;13.38;;;6.70;99.90;;;;;;5050395;28;20017;-72
2021/01/17 11:46:48;;;;;;;51.17;13.90;;;6.50;99.90;;;;;;5040907;28;20036;-72
2021/01/17 11:49:14;;;;;;;44.67;13.52;;;6.60;99.90;;;;;;5046738;28;20496;-72
2021/01/17 11:51:41;;;;;;;42.67;12.48;;;6.70;99.90;;;;;;5052285;28;20035;-72
2021/01/17 11:54:24;;;;;;;62.88;14.95;;;6.80;99.90;;;;;;5050044;28;20021;-71
2021/01/17 11:56:51;;;;;;;43.45;10.63;;;6.90;99.90;;;;;;5047293;28;20021;-73
2021/01/17 11:59:34;;;;;;;42.17;11.35;;;6.80;99.90;;;;;;5044005;28;20115;-72
2021/01/17 12:02:23;;;;;;;38.30;10.85;;;6.90;99.90;;;;;;5041614;28;20029;-72
2021/01/17 12:05:00;;;;;;;46.15;12.98;;;6.90;99.90;;;;;;5040161;28;20032;-71
2021/01/17 12:07:26;;;;;;;44.00;11.23;;;6.90;99.90;;;;;;5048277;28;20441;-72
2021/01/17 12:10:06;;;;;;;41.17;11.55;;;7.00;99.90;;;;;;5048045;28;20028;-72
2021/01/17 12:12:36;;;;;;;45.35;12.60;;;7.10;99.90;;;;;;5046849;28;20046;-72
2021/01/17 12:15:07;;;;;;;40.55;11.75;;;7.00;99.90;;;;;;5049157;28;20036;-72
2021/01/17 12:17:32;;;;;;;41.50;11.27;;;7.10;99.90;;;;;;5051311;28;20037;-71
2021/01/17 12:19:58;;;;;;;38.00;10.32;;;7.10;99.90;;;;;;5046190;28;20033;-72
2021/01/17 12:22:24;;;;;;;33.78;11.05;;;7.20;99.90;;;;;;5044499;28;20670;-73
2021/01/17 12:24:49;;;;;;;51.97;11.98;;;7.20;99.90;;;;;;5048213;28;20023;-72
2021/01/17 12:27:15;;;;;;;40.38;10.88;;;7.20;99.90;;;;;;5048198;28;20086;-72
2021/01/17 12:29:41;;;;;;;38.45;10.70;;;7.20;99.90;;;;;;5050170;28;20035;-72
2021/01/17 12:32:07;;;;;;;36.55;11.25;;;7.30;99.90;;;;;;5040361;28;20029;-72
2021/01/17 12:34:33;;;;;;;40.60;11.50;;;7.20;99.90;;;;;;5045429;28;20471;-73
2021/01/17 12:36:58;;;;;;;48.28;11.32;;;7.20;99.90;;;;;;5047208;28;20021;-72
2021/01/17 12:39:25;;;;;;;40.88;10.70;;;7.30;99.90;;;;;;5045330;28;20515;-73
2021/01/17 12:41:55;;;;;;;36.65;11.02;;;7.20;99.90;;;;;;5041565;28;20040;-73
2021/01/17 12:44:20;;;;;;;29.80;10.32;;;7.30;99.90;;;;;;5049150;28;20029;-72
2021/01/17 12:46:48;;;;;;;35.75;10.50;;;7.30;99.90;;;;;;5048727;28;20359;-73
2021/01/17 12:49:14;;;;;;;29.58;9.45;;;7.40;99.90;;;;;;5038888;28;20025;-73